EST,Max TemperatureF,Mean TemperatureF,Min TemperatureF,Max Dew PointF,MeanDew PointF,Min DewpointF,Max Humidity, Mean Humidity, Min Humidity, Max Sea Level PressureIn, Mean Sea Level PressureIn, Min Sea Level PressureIn, Max VisibilityMiles, Mean VisibilityMiles, Min VisibilityMiles, Max Wind SpeedMPH, Mean Wind SpeedMPH, Max Gust SpeedMPH,PrecipitationIn, CloudCover, Events, WindDirDegrees
2012-12-1,37,35,33,32,28,21,86,74,57,30.56,30.50,30.44,10,8,4,12,9,,0.00,8,Snow,17
2012-12-2,51,43,35,47,41,32,97,88,81,30.42,30.24,30.11,9,3,0,10,5,,0.06,7,Fog-Rain,253
2012-12-3,59,49,36,47,43,33,100,84,57,30.29,30.17,30.09,10,5,0,7,3,16,0.00,3,Fog,294
2012-12-4,57,45,33,53,45,30,94,89,82,30.30,30.20,30.00,10,4,0,7,2,,0.03,7,Fog-Rain,117
2012-12-5,55,46,36,50,37,18,96,68,42,30.21,30.01,29.89,10,8,0,16,4,28,0.00,5,Fog-Rain,313
2012-12-6,42,34,25,22,18,14,81,55,35,30.35,30.29,30.21,10,10,10,12,6,20,0.00,1,,346
2012-12-7,46,35,24,45,35,20,93,83,65,30.28,30.14,30.03,10,8,1,5,1,,0.04,7,Rain,177
2012-12-8,51,48,46,47,45,43,93,89,82,30.02,29.95,29.86,10,4,1,10,2,,0.14,8,Rain,340
2012-12-9,50,46,42,47,40,34,93,81,63,30.24,30.16,30.00,10,7,2,16,5,20,0.12,7,Rain,24
2012-12-10,55,50,44,54,48,41,100,93,87,30.05,29.71,29.54,10,2,0,8,4,,0.35,8,Fog-Rain,315
2012-12-11,53,46,37,54,36,25,100,69,44,30.19,29.84,29.56,10,8,0,18,7,28,0.00,6,Fog-Rain,339
2012-12-12,44,36,28,27,25,22,85,63,42,30.44,30.35,30.20,10,10,10,8,1,,0.00,4,,322
2012-12-13,46,37,27,28,25,22,85,67,37,30.48,30.40,30.32,10,10,8,10,3,,0.00,1,,355
2012-12-14,48,36,25,32,26,20,84,65,42,30.30,30.21,30.12,10,9,7,10,3,20,0.00,1,,251
2012-12-15,46,36,26,32,27,22,87,70,46,30.32,30.27,30.22,10,9,5,7,2,,0.00,2,,12
2012-12-16,43,41,39,38,36,31,93,82,67,30.24,30.10,29.97,10,6,2,16,9,30,0.15,8,Rain,55
2012-12-17,41,39,37,38,36,34,93,89,86,29.94,29.87,29.69,10,6,2,14,11,20,0.30,8,Rain,19
2012-12-18,50,44,39,46,42,36,93,87,66,29.67,29.51,29.45,10,7,1,13,7,21,0.61,8,Rain,348
2012-12-19,51,45,39,36,29,25,71,54,41,30.09,29.78,29.55,10,10,10,17,8,32,0.00,2,,311
2012-12-20,45,38,32,39,30,22,80,65,51,30.21,30.10,29.92,10,10,8,17,6,23,0.03,5,Rain,87
2012-12-21,57,49,41,54,43,28,94,79,60,29.86,29.28,29.09,10,7,2,29,20,46,0.70,7,Rain,164
2012-12-22,39,38,37,32,23,17,76,56,43,29.76,29.51,29.30,10,10,10,16,11,30,0.00,7,,282
2012-12-23,43,40,37,26,22,20,57,50,42,29.93,29.87,29.78,10,10,10,12,7,20,0.00,4,,263
2012-12-24,39,36,33,30,24,19,87,63,46,30.09,30.02,29.94,10,8,2,8,4,,0.04,5,Snow,5
2012-12-25,41,36,30,32,29,22,89,79,58,30.25,30.03,29.92,10,8,3,12,8,18,0.05,6,Rain,358
2012-12-26,37,31,25,33,23,17,87,71,56,30.29,30.09,29.61,10,8,1,23,10,38,0.10,6,Rain-Snow,29
2012-12-27,41,37,33,37,32,21,93,79,60,29.75,29.43,29.25,10,7,2,25,18,38,0.24,8,Rain,353
2012-12-28,39,34,30,23,21,17,69,59,49,30.06,29.97,29.78,10,10,10,17,10,30,0.00,3,,319
2012-12-29,35,32,28,30,27,22,93,83,69,30.04,29.66,29.44,10,4,0,17,6,24,0.19,7,Fog-Rain-Snow,2
2012-12-30,36,33,28,28,18,10,81,57,42,30.09,29.82,29.51,10,10,5,17,10,40,0.00,3,Snow,318
2012-12-31,39,34,28,25,20,11,61,55,47,30.14,30.02,29.85,10,10,10,14,10,25,0.00,5,,251